Time;durP1;ratioP1;P1;durP2;ratioP2;P2;SDS_P1;SDS_P2;PMS_P1;PMS_P2;Temp;Humidity;BMP_temperature;BMP_pressure;BME280_temperature;BME280_humidity;BME280_pressure;Samples;Min_cycle;Max_cycle;Signal;HPM_P1;HPM_P2
2021/09/19 00:01:52;;;;;;;20.80;12.30;;;;;;;12.83;100.00;94787.66;10487066;28;20394;-70
2021/09/19 00:06:52;;;;;;;21.52;14.00;;;;;;;12.72;100.00;94788.84;10487254;28;20983;-70
2021/09/19 00:11:53;;;;;;;21.70;13.18;;;;;;;12.49;100.00;94809.28;10488908;28;20467;-70
2021/09/19 00:16:53;;;;;;;21.25;12.68;;;;;;;12.63;100.00;94787.88;10487929;28;20056;-71
2021/09/19 00:21:54;;;;;;;17.27;11.88;;;;;;;12.41;100.00;94794.53;10488513;28;20044;-71
2021/09/19 00:26:54;;;;;;;18.83;12.90;;;;;;;12.34;100.00;94774.41;10487697;28;20024;-72
2021/09/19 00:31:57;;;;;;;22.63;11.45;;;;;;;12.50;100.00;94766.97;10487145;28;20048;-70
2021/09/19 00:36:58;;;;;;;16.55;11.07;;;;;;;12.54;100.00;94760.72;10486586;28;20042;-71
2021/09/19 00:41:59;;;;;;;17.95;11.77;;;;;;;12.54;100.00;94754.53;10487760;28;20032;-71
2021/09/19 00:46:59;;;;;;;17.85;11.73;;;;;;;12.57;100.00;94753.94;10486763;28;20051;-71
2021/09/19 00:52:00;;;;;;;18.77;13.23;;;;;;;12.41;100.00;94748.69;10487010;28;20037;-71
2021/09/19 00:57:00;;;;;;;16.25;11.57;;;;;;;12.39;100.00;94732.03;10487382;28;20166;-71
2021/09/19 01:02:01;;;;;;;21.38;11.45;;;;;;;12.31;100.00;94743.41;10486946;28;20029;-71
2021/09/19 01:07:02;;;;;;;19.60;12.68;;;;;;;12.29;100.00;94729.41;10485974;28;20024;-70
2021/09/19 01:12:03;;;;;;;19.95;12.45;;;;;;;12.16;100.00;94722.00;10487180;28;20024;-70
2021/09/19 01:17:05;;;;;;;19.67;11.90;;;;;;;12.10;100.00;94727.44;10486500;28;20469;-70
2021/09/19 01:22:06;;;;;;;24.88;13.50;;;;;;;12.33;100.00;94722.38;10486463;28;20040;-70
2021/09/19 01:27:07;;;;;;;21.02;13.60;;;;;;;12.36;100.00;94729.09;10486840;28;20111;-73
2021/09/19 01:32:08;;;;;;;19.92;13.20;;;;;;;12.50;100.00;94718.44;10486470;28;20083;-73
2021/09/19 01:37:08;;;;;;;23.50;13.32;;;;;;;12.35;100.00;94739.06;10486867;28;20108;-73
2021/09/19 01:42:10;;;;;;;25.50;13.55;;;;;;;12.40;100.00;94713.94;10486427;28;20426;-73
2021/09/19 01:47:11;;;;;;;20.10;12.70;;;;;;;12.35;100.00;94725.59;10485972;28;20464;-73
2021/09/19 01:52:12;;;;;;;37.10;19.08;;;;;;;12.37;100.00;94730.69;10484531;28;20024;-73
2021/09/19 01:57:20;;;;;;;41.22;21.45;;;;;;;12.44;100.00;94731.97;10485386;28;20425;-70
2021/09/19 02:02:21;;;;;;;47.40;21.60;;;;;;;12.44;100.00;94736.56;10485926;28;20107;-70
2021/09/19 02:07:21;;;;;;;36.45;20.15;;;;;;;12.43;100.00;94740.34;10485656;28;20035;-70
2021/09/19 02:12:22;;;;;;;37.60;19.90;;;;;;;12.44;100.00;94731.16;10491391;28;20111;-71
2021/09/19 02:17:22;;;;;;;30.73;18.40;;;;;;;12.31;100.00;94725.34;10493742;28;20049;-71
2021/09/19 02:22:23;;;;;;;35.53;18.63;;;;;;;12.21;100.00;94717.38;10493590;28;20369;-70
2021/09/19 02:27:23;;;;;;;31.77;19.27;;;;;;;12.25;100.00;94723.81;10493203;28;20109;-70
2021/09/19 02:32:23;;;;;;;26.23;14.10;;;;;;;12.07;100.00;94714.53;10492843;28;20277;-72
2021/09/19 02:37:25;;;;;;;29.58;15.45;;;;;;;11.99;100.00;94712.44;10490889;28;20263;-72
2021/09/19 02:42:25;;;;;;;25.17;15.75;;;;;;;12.16;100.00;94722.81;10487958;28;20089;-72
2021/09/19 02:47:25;;;;;;;31.50;17.60;;;;;;;12.04;100.00;94715.09;10490512;28;20082;-72
2021/09/19 02:52:26;;;;;;;26.87;15.20;;;;;;;12.02;100.00;94716.47;10490157;28;20427;-72
2021/09/19 02:57:27;;;;;;;25.15;14.82;;;;;;;12.12;100.00;94714.47;10490072;28;20681;-72
2021/09/19 03:02:27;;;;;;;27.30;15.63;;;;;;;12.26;100.00;94719.22;10489729;28;20208;-72
2021/09/19 03:07:28;;;;;;;27.33;15.03;;;;;;;12.26;100.00;94719.22;10489310;28;20319;-72
2021/09/19 03:12:28;;;;;;;31.63;16.25;;;;;;;12.14;100.00;94719.59;10489643;28;20325;-72
2021/09/19 03:17:28;;;;;;;34.20;19.17;;;;;;;12.30;100.00;94712.94;10488832;28;20529;-72
2021/09/19 03:22:29;;;;;;;24.23;14.77;;;;;;;12.34;100.00;94715.91;10488739;28;20107;-72
2021/09/19 03:27:30;;;;;;;28.83;16.33;;;;;;;12.50;100.00;94707.66;10489160;28;20645;-72
2021/09/19 03:32:31;;;;;;;27.13;15.77;;;;;;;12.50;100.00;94719.22;10488657;28;20772;-72
2021/09/19 03:37:31;;;;;;;25.08;15.98;;;;;;;12.61;100.00;94711.84;10488556;28;20095;-72
2021/09/19 03:42:32;;;;;;;33.22;16.83;;;;;;;12.62;100.00;94705.38;10489223;28;20487;-72
2021/09/19 03:47:33;;;;;;;27.67;15.60;;;;;;;12.68;100.00;94706.91;10488022;28;20103;-72
2021/09/19 03:52:34;;;;;;;25.75;15.73;;;;;;;12.72;100.00;94705.25;10487505;28;20040;-71
2021/09/19 03:57:34;;;;;;;28.42;15.95;;;;;;;12.63;100.00;94702.38;10488699;28;20024;-72
2021/09/19 04:02:34;;;;;;;25.50;16.10;;;;;;;12.64;100.00;94712.09;10487552;28;20119;-72
2021/09/19 04:07:36;;;;;;;28.00;15.50;;;;;;;12.73;100.00;94712.25;10487206;28;20301;-72
2021/09/19 04:12:37;;;;;;;25.48;16.63;;;;;;;12.59;100.00;94705.94;10487254;28;20278;-72
2021/09/19 04:17:37;;;;;;;28.73;16.35;;;;;;;12.54;100.00;94704.09;10486705;28;20546;-72
2021/09/19 04:22:38;;;;;;;32.03;16.23;;;;;;;12.47;100.00;94706.34;10486408;28;20039;-72
2021/09/19 04:27:38;;;;;;;24.42;15.43;;;;;;;12.53;100.00;94704.38;10486357;28;20040;-72
2021/09/19 04:32:39;;;;;;;28.75;15.70;;;;;;;12.63;100.00;94702.38;10485318;28;20143;-72
2021/09/19 04:37:39;;;;;;;29.67;17.90;;;;;;;12.69;100.00;94713.13;10485899;28;20024;-72
2021/09/19 04:42:40;;;;;;;30.23;18.15;;;;;;;12.76;100.00;94727.06;10485083;28;20803;-72
2021/09/19 04:47:40;;;;;;;25.83;16.65;;;;;;;12.85;100.00;94725.34;10485466;28;20504;-72
2021/09/19 04:52:41;;;;;;;28.90;17.77;;;;;;;13.01;100.00;94733.25;10467286;28;20032;-72
2021/09/19 04:57:41;;;;;;;28.90;17.00;;;;;;;13.15;100.00;94734.16;10484961;28;20021;-72
2021/09/19 05:02:42;;;;;;;34.20;19.43;;;;;;;13.29;100.00;94728.84;10485384;28;20024;-72
2021/09/19 05:07:42;;;;;;;30.17;17.73;;;;;;;13.35;100.00;94733.09;10484570;28;20295;-72
2021/09/19 05:12:43;;;;;;;32.47;20.00;;;;;;;13.48;100.00;94716.19;10484428;28;20177;-72
2021/09/19 05:17:43;;;;;;;29.37;19.17;;;;;;;13.70;100.00;94719.41;10488954;28;20278;-72
2021/09/19 05:22:43;;;;;;;24.30;14.53;;;;;;;13.83;100.00;94714.06;10526809;28;20285;-72
2021/09/19 05:27:44;;;;;;;23.23;14.97;;;;;;;14.02;100.00;94702.41;10526999;28;20706;-72
2021/09/19 05:32:44;;;;;;;20.97;13.10;;;;;;;14.07;100.00;94699.63;10524910;28;20278;-72
2021/09/19 05:37:45;;;;;;;18.67;12.73;;;;;;;14.51;100.00;94692.91;10526705;28;21125;-72
2021/09/19 05:42:45;;;;;;;20.80;11.48;;;;;;;14.99;100.00;94680.91;10525860;28;20533;-72
2021/09/19 05:47:46;;;;;;;17.07;11.23;;;;;;;15.06;100.00;94666.97;10524860;28;20034;-72
2021/09/19 05:52:46;;;;;;;17.80;11.32;;;;;;;14.73;100.00;94660.91;10525594;28;20278;-72
2021/09/19 05:57:47;;;;;;;18.20;11.93;;;;;;;14.56;100.00;94642.53;10525636;28;20463;-72
2021/09/19 06:02:48;;;;;;;18.38;12.60;;;;;;;14.66;100.00;94635.03;10524606;28;20024;-72
2021/09/19 06:07:48;;;;;;;17.75;10.88;;;;;;;14.85;100.00;94632.22;10515378;28;20154;-73
2021/09/19 06:12:49;;;;;;;15.33;10.57;;;;;;;14.98;100.00;94637.94;10508094;28;20028;-73
2021/09/19 06:17:49;;;;;;;12.20;8.93;;;;;;;15.19;100.00;94641.00;10522852;28;20308;-74
2021/09/19 06:22:50;;;;;;;13.07;9.13;;;;;;;15.73;100.00;94638.41;10520517;28;20032;-73
2021/09/19 06:27:50;;;;;;;14.05;9.57;;;;;;;16.09;100.00;94637.56;10522377;28;20780;-73
2021/09/19 06:32:50;;;;;;;14.35;8.13;;;;;;;16.78;100.00;94649.81;10506258;28;20020;-73
2021/09/19 06:37:51;;;;;;;15.98;10.23;;;;;;;17.35;100.00;94650.94;10524790;28;20452;-73
2021/09/19 06:42:51;;;;;;;12.63;8.87;;;;;;;17.99;100.00;94635.91;10521798;28;20047;-73
2021/09/19 06:47:52;;;;;;;16.73;10.00;;;;;;;18.71;100.00;94650.59;10523329;28;20289;-75
2021/09/19 06:52:52;;;;;;;18.55;10.15;;;;;;;18.84;100.00;94637.88;10525449;28;20034;-74
2021/09/19 06:57:57;;;;;;;16.30;9.70;;;;;;;19.09;100.00;94640.81;10530648;28;20024;-74
2021/09/19 07:02:57;;;;;;;12.05;8.57;;;;;;;19.21;100.00;94643.59;10533887;28;20031;-73
2021/09/19 07:07:57;;;;;;;17.23;10.87;;;;;;;19.96;100.00;94642.88;10532792;28;20489;-73
2021/09/19 07:12:58;;;;;;;13.27;8.87;;;;;;;21.32;100.00;94642.28;10540587;28;20284;-72
2021/09/19 07:17:58;;;;;;;13.47;8.30;;;;;;;23.22;100.00;94643.13;10524113;28;20613;-73
2021/09/19 07:22:58;;;;;;;11.20;7.37;;;;;;;24.74;89.28;94647.78;10529228;28;20451;-72
2021/09/19 07:28:03;;;;;;;10.43;8.33;;;;;;;25.97;75.93;94633.09;10528091;28;20028;-72
2021/09/19 07:33:04;;;;;;;12.02;8.02;;;;;;;26.43;68.96;94627.34;10527950;28;20230;-73
2021/09/19 07:38:05;;;;;;;13.43;9.20;;;;;;;24.87;78.05;94651.13;10494493;28;20024;-73
2021/09/19 07:43:07;;;;;;;11.35;8.80;;;;;;;23.09;92.85;94655.31;10486232;28;20431;-73
2021/09/19 07:48:10;;;;;;;12.90;9.00;;;;;;;23.15;97.90;94671.16;10487351;28;20483;-73
2021/09/19 07:53:11;;;;;;;13.70;9.07;;;;;;;23.68;89.78;94675.47;10487742;28;20032;-73
2021/09/19 07:58:12;;;;;;;10.77;8.13;;;;;;;24.03;82.86;94680.16;10486945;28;20029;-73
2021/09/19 08:03:12;;;;;;;12.00;8.43;;;;;;;23.64;80.40;94675.41;10486530;28;20033;-73
2021/09/19 08:08:12;;;;;;;15.70;8.13;;;;;;;22.51;87.63;94670.31;10486465;28;20289;-72
2021/09/19 08:13:13;;;;;;;11.88;8.57;;;;;;;21.51;100.00;94677.22;10469684;28;20139;-73
2021/09/19 08:18:14;;;;;;;13.05;9.70;;;;;;;20.32;100.00;94676.91;10488020;28;20424;-73
2021/09/19 08:23:14;;;;;;;11.30;8.63;;;;;;;20.70;100.00;94660.63;10486466;28;20534;-73
2021/09/19 08:28:15;;;;;;;16.05;9.85;;;;;;;21.05;100.00;94677.38;10487323;28;20037;-73
2021/09/19 08:33:15;;;;;;;15.35;10.00;;;;;;;19.56;100.00;94686.97;10469422;28;20024;-73
2021/09/19 08:38:16;;;;;;;15.10;11.07;;;;;;;18.93;100.00;94684.94;10487001;28;20020;-72
2021/09/19 08:43:17;;;;;;;15.03;10.60;;;;;;;18.70;100.00;94678.94;10527674;28;20127;-73
2021/09/19 08:48:21;;;;;;;17.83;10.85;;;;;;;18.35;100.00;94683.66;10476570;28;21219;-72
2021/09/19 08:53:24;;;;;;;16.38;12.27;;;;;;;18.40;100.00;94684.28;10468127;28;20038;-72
2021/09/19 08:58:25;;;;;;;17.70;12.77;;;;;;;18.34;100.00;94682.88;10486692;28;20107;-75
2021/09/19 09:03:28;;;;;;;15.95;11.63;;;;;;;18.68;100.00;94694.78;10511143;28;20023;-76
2021/09/19 09:08:31;;;;;;;16.23;11.93;;;;;;;18.23;100.00;94687.84;10529026;28;20102;-73
2021/09/19 09:13:35;;;;;;;22.48;13.57;;;;;;;18.01;100.00;94698.94;10524058;28;20059;-72
2021/09/19 09:18:39;;;;;;;19.67;12.15;;;;;;;17.73;100.00;94688.34;10527309;28;20162;-74
2021/09/19 09:23:44;;;;;;;18.45;12.23;;;;;;;18.02;100.00;94681.50;10509707;28;20059;-72
2021/09/19 09:28:55;;;;;;;16.05;10.68;;;;;;;18.14;100.00;94675.38;10528974;28;20566;-72
2021/09/19 09:34:16;;;;;;;17.88;10.82;;;;;;;18.15;100.00;94661.47;10528469;28;20028;-73
2021/09/19 09:39:25;;;;;;;12.50;9.20;;;;;;;18.04;100.00;94658.31;10527651;28;20042;-72
2021/09/19 09:44:36;;;;;;;12.90;10.05;;;;;;;17.40;100.00;94659.72;10485140;28;20024;-72
2021/09/19 09:49:47;;;;;;;14.20;9.57;;;;;;;17.52;100.00;94656.34;10503660;28;20520;-72
2021/09/19 09:54:47;;;;;;;14.93;9.85;;;;;;;17.60;100.00;94665.66;10488073;28;20148;-72
2021/09/19 09:59:50;;;;;;;17.43;11.63;;;;;;;17.70;100.00;94634.63;10506419;28;20016;-72
2021/09/19 10:04:51;;;;;;;15.50;10.27;;;;;;;17.85;100.00;94627.91;10501863;28;20310;-72
2021/09/19 10:09:52;;;;;;;14.48;10.55;;;;;;;18.04;100.00;94622.13;10499783;28;20032;-73
2021/09/19 10:14:54;;;;;;;17.27;9.77;;;;;;;18.31;100.00;94633.75;10502270;28;20044;-73
2021/09/19 10:19:55;;;;;;;18.83;10.65;;;;;;;18.48;100.00;94630.19;10504149;28;20460;-73
2021/09/19 10:24:56;;;;;;;20.83;10.13;;;;;;;19.31;100.00;94631.50;10505151;28;20031;-72
2021/09/19 10:30:03;;;;;;;16.92;10.77;;;;;;;19.43;100.00;94607.06;10500641;28;20406;-73
2021/09/19 10:35:28;;;;;;;14.18;10.07;;;;;;;19.93;100.00;94604.59;10510498;28;20031;-73
2021/09/19 10:40:40;;;;;;;15.70;8.32;;;;;;;21.95;100.00;94603.50;10525410;28;20047;-73
2021/09/19 10:45:43;;;;;;;11.90;8.38;;;;;;;22.99;100.00;94602.59;10524040;28;20066;-73
2021/09/19 10:50:46;;;;;;;9.68;7.60;;;;;;;22.82;100.00;94601.03;10492783;28;20051;-71
2021/09/19 10:56:01;;;;;;;15.10;9.07;;;;;;;22.32;100.00;94591.56;10519983;28;20462;-74
2021/09/19 11:01:11;;;;;;;11.73;9.02;;;;;;;22.85;100.00;94577.63;10519197;28;20027;-73
2021/09/19 11:06:23;;;;;;;13.55;8.23;;;;;;;22.84;100.00;94573.28;10532448;28;20034;-71
2021/09/19 11:11:26;;;;;;;13.82;8.30;;;;;;;22.39;100.00;94569.06;10491509;28;20033;-72
2021/09/19 11:16:30;;;;;;;14.43;9.40;;;;;;;21.57;100.00;94552.81;10490636;28;20524;-71
2021/09/19 11:21:34;;;;;;;17.02;9.88;;;;;;;20.87;100.00;94558.56;10490267;28;20036;-71
2021/09/19 11:26:43;;;;;;;17.05;9.77;;;;;;;20.98;100.00;94538.59;10489843;28;20063;-71
2021/09/19 11:31:46;;;;;;;21.73;10.85;;;;;;;20.96;100.00;94549.09;10490182;28;20035;-73
2021/09/19 11:36:50;;;;;;;18.65;11.25;;;;;;;20.40;100.00;94546.94;10489766;28;20360;-71
2021/09/19 11:41:50;;;;;;;13.35;10.10;;;;;;;20.08;100.00;94556.75;10490367;28;20391;-73
2021/09/19 11:46:51;;;;;;;17.75;11.05;;;;;;;20.50;100.00;94537.50;10490930;28;20029;-73
2021/09/19 11:51:51;;;;;;;17.80;10.60;;;;;;;21.08;100.00;94537.31;10472583;28;20049;-73
2021/09/19 11:56:52;;;;;;;16.67;9.40;;;;;;;21.42;100.00;94534.38;10531935;28;20028;-73
2021/09/19 12:01:55;;;;;;;14.75;10.35;;;;;;;21.50;100.00;94526.06;10525416;28;20399;-73
2021/09/19 12:06:58;;;;;;;20.77;10.88;;;;;;;21.90;100.00;94516.19;10530994;28;20034;-73
2021/09/19 12:11:58;;;;;;;15.77;10.60;;;;;;;21.23;100.00;94519.41;10530255;28;20024;-73
2021/09/19 12:17:05;;;;;;;17.83;11.43;;;;;;;21.05;100.00;94515.38;10529952;28;20060;-73
2021/09/19 12:22:20;;;;;;;21.70;11.20;;;;;;;20.73;100.00;94513.25;10529388;28;20478;-73
2021/09/19 12:27:23;;;;;;;21.92;11.05;;;;;;;20.75;100.00;94510.19;10530377;28;20028;-73
2021/09/19 12:32:33;;;;;;;17.75;10.10;;;;;;;21.29;100.00;94509.84;10528676;28;20462;-72
2021/09/19 12:37:35;;;;;;;15.20;9.25;;;;;;;21.81;100.00;94516.38;10528881;28;20035;-71
2021/09/19 12:42:36;;;;;;;12.82;9.40;;;;;;;21.43;100.00;94498.50;10529050;28;20032;-72
2021/09/19 12:47:38;;;;;;;19.80;10.35;;;;;;;21.10;100.00;94505.00;10528559;28;20032;-73
2021/09/19 12:52:39;;;;;;;15.90;10.85;;;;;;;21.11;100.00;94509.34;10529020;28;20470;-73
2021/09/19 12:57:39;;;;;;;16.70;10.00;;;;;;;21.02;100.00;94516.06;10528356;28;20056;-73
2021/09/19 13:02:40;;;;;;;10.07;6.83;;;;;;;20.84;100.00;94516.31;10509848;28;20737;-73
2021/09/19 13:07:40;;;;;;;13.95;7.13;;;;;;;20.67;100.00;94520.06;10509807;28;20369;-73
2021/09/19 13:12:41;;;;;;;15.90;7.37;;;;;;;20.16;100.00;94525.84;10520206;28;20115;-74
2021/09/19 13:17:41;;;;;;;13.20;8.20;;;;;;;20.09;100.00;94529.16;10502253;28;20059;-74
2021/09/19 13:22:42;;;;;;;14.80;7.80;;;;;;;19.62;100.00;94540.38;10518513;28;20028;-73
2021/09/19 13:27:43;;;;;;;15.00;8.07;;;;;;;19.19;100.00;94542.34;10518305;28;20101;-75
2021/09/19 13:32:44;;;;;;;12.15;8.18;;;;;;;18.88;100.00;94551.69;10525857;28;20809;-73
2021/09/19 13:37:45;;;;;;;16.70;8.75;;;;;;;18.65;100.00;94555.81;10526764;28;20043;-73
2021/09/19 13:42:46;;;;;;;12.98;7.70;;;;;;;18.76;100.00;94538.75;10526435;28;20111;-73
2021/09/19 13:47:47;;;;;;;17.73;8.27;;;;;;;18.77;100.00;94539.56;10518853;28;20435;-73
2021/09/19 13:52:47;;;;;;;14.93;8.57;;;;;;;18.79;100.00;94537.31;10484125;28;20149;-73
2021/09/19 13:57:48;;;;;;;14.50;8.30;;;;;;;18.80;100.00;94544.34;10489719;28;20035;-74
2021/09/19 14:02:48;;;;;;;11.95;8.38;;;;;;;18.82;100.00;94552.19;10525004;28;20023;-73
2021/09/19 14:07:49;;;;;;;13.83;8.10;;;;;;;18.84;100.00;94545.28;10522565;28;20040;-73
2021/09/19 14:12:49;;;;;;;10.23;7.93;;;;;;;18.85;100.00;94540.63;10490895;28;1141431;-73
2021/09/19 14:17:50;;;;;;;16.08;7.13;;;;;;;18.98;100.00;94549.69;10535517;28;20278;-72
2021/09/19 14:22:51;;;;;;;13.93;7.85;;;;;;;19.04;100.00;94541.00;10510780;28;20111;-72
2021/09/19 14:27:52;;;;;;;11.38;7.72;;;;;;;18.92;100.00;94527.31;10493125;28;20028;-73
2021/09/19 14:32:52;;;;;;;16.88;8.35;;;;;;;18.83;100.00;94529.28;10492899;28;20392;-72
2021/09/19 14:37:53;;;;;;;14.10;8.13;;;;;;;18.74;100.00;94516.53;10493324;28;20035;-73
2021/09/19 14:42:53;;;;;;;17.15;7.47;;;;;;;18.74;100.00;94518.44;10491747;28;20274;-73
2021/09/19 14:47:55;;;;;;;12.95;7.70;;;;;;;18.67;100.00;94512.72;10492581;28;20414;-72
2021/09/19 14:52:55;;;;;;;15.52;7.28;;;;;;;18.62;100.00;94522.66;10492376;28;20024;-73
2021/09/19 14:57:56;;;;;;;9.23;6.97;;;;;;;18.62;100.00;94517.22;10514705;28;20023;-74
2021/09/19 15:02:56;;;;;;;15.05;8.02;;;;;;;18.74;100.00;94516.53;10532046;28;20027;-75
2021/09/19 15:07:57;;;;;;;15.23;7.80;;;;;;;18.84;100.00;94511.81;10514195;28;20020;-73
2021/09/19 15:12:57;;;;;;;14.25;7.80;;;;;;;18.89;100.00;94515.19;10532409;28;20031;-72
2021/09/19 15:17:58;;;;;;;13.38;7.45;;;;;;;18.77;100.00;94512.34;10511362;28;20032;-72
2021/09/19 15:22:58;;;;;;;14.67;7.57;;;;;;;18.81;100.00;94513.28;10490135;28;20035;-72
2021/09/19 15:27:58;;;;;;;13.40;7.40;;;;;;;18.81;100.00;94505.13;10488255;28;20294;-72
2021/09/19 15:32:59;;;;;;;14.15;8.10;;;;;;;18.85;100.00;94507.97;10489507;28;20273;-72
2021/09/19 15:37:59;;;;;;;11.20;7.20;;;;;;;18.84;100.00;94512.63;10489469;28;20043;-72
2021/09/19 15:43:00;;;;;;;10.27;7.20;;;;;;;18.79;100.00;94501.91;10489070;28;20653;-72
2021/09/19 15:48:00;;;;;;;10.10;6.57;;;;;;;18.82;100.00;94498.53;10489812;28;20548;-73
2021/09/19 15:53:01;;;;;;;14.93;8.53;;;;;;;18.86;100.00;94493.22;10489544;28;20020;-72
2021/09/19 15:58:01;;;;;;;21.00;9.83;;;;;;;18.89;100.00;94487.13;10489865;28;20271;-73
2021/09/19 16:03:01;;;;;;;22.23;9.70;;;;;;;18.87;100.00;94492.91;10489075;28;20052;-72
2021/09/19 16:08:02;;;;;;;22.63;10.27;;;;;;;18.85;100.00;94492.44;10529783;28;20028;-72
2021/09/19 16:13:03;;;;;;;20.13;10.63;;;;;;;18.77;100.00;94488.63;10529950;28;20056;-72
2021/09/19 16:18:04;;;;;;;14.77;10.23;;;;;;;18.73;100.00;94486.91;10531335;28;20031;-72
2021/09/19 16:23:07;;;;;;;18.92;10.98;;;;;;;18.58;100.00;94494.50;10530338;28;20031;-72
2021/09/19 16:28:08;;;;;;;16.63;8.85;;;;;;;18.34;100.00;94495.16;10529832;28;20028;-72
2021/09/19 16:33:10;;;;;;;20.88;9.32;;;;;;;18.10;100.00;94487.59;10530062;28;20028;-72
2021/09/19 16:38:11;;;;;;;13.27;7.47;;;;;;;17.96;100.00;94498.69;10529935;28;20019;-72
2021/09/19 16:43:11;;;;;;;24.67;8.23;;;;;;;17.81;100.00;94493.75;10528162;28;20020;-72
2021/09/19 16:48:12;;;;;;;14.43;7.85;;;;;;;17.55;100.00;94503.56;10528145;28;20414;-72
2021/09/19 16:53:14;;;;;;;15.60;8.23;;;;;;;17.40;100.00;94504.88;10504663;28;20556;-72
2021/09/19 16:58:14;;;;;;;18.65;9.10;;;;;;;17.32;100.00;94507.59;10504707;28;20033;-72
2021/09/19 17:03:15;;;;;;;17.38;7.80;;;;;;;17.23;100.00;94511.13;10505822;28;20032;-72
2021/09/19 17:08:15;;;;;;;14.55;8.13;;;;;;;17.20;100.00;94509.03;10505319;28;20032;-72
2021/09/19 17:13:16;;;;;;;11.93;8.23;;;;;;;17.10;100.00;94519.44;10503680;28;20040;-72
2021/09/19 17:18:18;;;;;;;14.13;8.85;;;;;;;16.97;100.00;94510.31;10505530;28;20040;-72
2021/09/19 17:23:18;;;;;;;17.67;9.20;;;;;;;16.88;100.00;94513.00;10503242;28;20047;-72
2021/09/19 17:28:19;;;;;;;23.60;9.85;;;;;;;16.88;100.00;94513.84;10504246;28;20043;-72
2021/09/19 17:33:19;;;;;;;17.83;9.07;;;;;;;16.84;100.00;94518.28;10507714;28;20032;-72
2021/09/19 17:38:21;;;;;;;19.15;9.82;;;;;;;16.92;100.00;94522.13;10491565;28;20024;-72
2021/09/19 17:43:21;;;;;;;22.30;10.75;;;;;;;16.77;100.00;94517.94;10507115;28;20467;-71
2021/09/19 17:48:25;;;;;;;16.00;8.40;;;;;;;16.70;100.00;94526.56;10498547;28;20027;-72
2021/09/19 17:53:26;;;;;;;24.35;10.30;;;;;;;16.65;100.00;94528.63;10520432;28;20040;-72
2021/09/19 17:58:27;;;;;;;17.47;9.40;;;;;;;16.61;100.00;94523.03;10527644;28;20025;-72
2021/09/19 18:03:28;;;;;;;18.23;8.93;;;;;;;16.67;100.00;94529.09;10527661;28;20274;-72
2021/09/19 18:08:29;;;;;;;25.42;12.98;;;;;;;16.58;100.00;94538.03;10527670;28;20039;-72
2021/09/19 18:13:29;;;;;;;14.70;9.65;;;;;;;16.57;100.00;94533.69;10525555;28;20044;-72
2021/09/19 18:18:30;;;;;;;15.43;8.52;;;;;;;16.51;100.00;94531.47;10527633;28;20031;-71
2021/09/19 18:23:30;;;;;;;18.10;9.95;;;;;;;16.53;100.00;94537.38;10527425;28;20530;-72
2021/09/19 18:28:36;;;;;;;11.07;6.13;;;;;;;16.56;100.00;94540.28;10509217;28;20189;-72
2021/09/19 18:33:37;;;;;;;14.75;7.78;;;;;;;16.55;100.00;94537.88;10536205;28;20269;-72
2021/09/19 18:38:38;;;;;;;13.38;7.47;;;;;;;16.65;100.00;94543.00;10487927;28;20021;-72
2021/09/19 18:43:39;;;;;;;11.15;6.70;;;;;;;16.64;100.00;94538.66;10485170;28;20836;-73
2021/09/19 18:48:39;;;;;;;12.00;6.38;;;;;;;16.60;100.00;94536.91;10484625;28;20027;-72
2021/09/19 18:53:42;;;;;;;13.02;6.70;;;;;;;16.54;100.00;94528.91;10487642;28;20882;-72
2021/09/19 18:58:42;;;;;;;12.55;6.20;;;;;;;16.55;100.00;94522.38;10491113;28;20082;-72
2021/09/19 19:03:43;;;;;;;13.65;6.63;;;;;;;16.55;100.00;94525.09;10490926;28;20028;-72
2021/09/19 19:08:43;;;;;;;20.33;9.07;;;;;;;16.66;100.00;94506.59;10490783;28;20115;-72
2021/09/19 19:13:44;;;;;;;11.33;6.60;;;;;;;16.69;100.00;94513.31;10490396;28;20051;-72
2021/09/19 19:18:44;;;;;;;9.82;6.57;;;;;;;16.65;100.00;94515.06;10509487;28;20281;-72
2021/09/19 19:23:45;;;;;;;10.13;6.07;;;;;;;16.67;100.00;94510.09;10483901;28;20081;-72
2021/09/19 19:28:46;;;;;;;16.30;6.17;;;;;;;16.73;100.00;94512.34;10521708;28;20729;-73
2021/09/19 19:33:46;;;;;;;10.38;5.80;;;;;;;16.67;100.00;94516.31;10532488;28;20356;-72
2021/09/19 19:38:47;;;;;;;12.13;6.28;;;;;;;16.62;100.00;94507.53;10532768;28;20023;-72
2021/09/19 19:43:47;;;;;;;15.27;6.30;;;;;;;16.49;100.00;94528.28;10496298;28;20035;-72
2021/09/19 19:48:48;;;;;;;9.57;5.95;;;;;;;16.33;100.00;94542.25;10489539;28;20058;-72
2021/09/19 19:53:49;;;;;;;12.77;6.47;;;;;;;16.04;100.00;94551.72;10510426;28;20047;-72
2021/09/19 19:58:49;;;;;;;10.88;6.20;;;;;;;15.78;100.00;94556.19;10531052;28;20020;-72
2021/09/19 20:03:50;;;;;;;16.17;7.80;;;;;;;15.63;100.00;94560.88;10499963;28;20023;-72
2021/09/19 20:08:52;;;;;;;10.55;7.28;;;;;;;15.63;100.00;94566.31;10489688;28;20289;-72
2021/09/19 20:13:52;;;;;;;16.85;10.68;;;;;;;15.64;100.00;94567.91;10485542;28;20051;-72
2021/09/19 20:18:53;;;;;;;16.40;9.02;;;;;;;15.76;100.00;94597.13;10487671;28;20394;-72
2021/09/19 20:23:55;;;;;;;15.63;8.55;;;;;;;15.71;100.00;94606.19;10496581;28;20103;-72
2021/09/19 20:28:58;;;;;;;15.30;7.68;;;;;;;15.58;100.00;94595.44;10531215;28;20024;-72
2021/09/19 20:33:58;;;;;;;12.85;6.30;;;;;;;15.56;100.00;94603.88;10530293;28;20024;-72
2021/09/19 20:38:59;;;;;;;13.90;7.28;;;;;;;15.52;100.00;94605.59;10530366;28;20478;-72
2021/09/19 20:43:59;;;;;;;12.20;6.50;;;;;;;15.49;100.00;94600.78;10529968;28;20020;-72
2021/09/19 20:49:00;;;;;;;14.35;6.97;;;;;;;15.36;100.00;94599.72;10529541;28;20047;-72
2021/09/19 20:54:01;;;;;;;13.07;7.60;;;;;;;15.21;100.00;94585.44;10529732;28;20028;-72
2021/09/19 20:59:01;;;;;;;23.80;12.45;;;;;;;15.20;100.00;94599.28;10529237;28;20558;-73
2021/09/19 21:04:02;;;;;;;11.85;8.32;;;;;;;15.14;100.00;94595.91;10529160;28;20024;-73
2021/09/19 21:09:04;;;;;;;14.65;8.52;;;;;;;14.99;100.00;94599.72;10529140;28;20554;-73
2021/09/19 21:14:08;;;;;;;18.70;8.57;;;;;;;14.85;100.00;94596.25;10528271;28;20414;-72
2021/09/19 21:19:09;;;;;;;17.58;8.55;;;;;;;14.79;100.00;94605.56;10528580;28;20559;-72
2021/09/19 21:24:12;;;;;;;16.38;8.10;;;;;;;14.69;100.00;94609.28;10510440;28;20023;-73
2021/09/19 21:29:14;;;;;;;17.98;8.07;;;;;;;14.63;100.00;94607.81;10529964;28;20053;-73
2021/09/19 21:34:15;;;;;;;16.45;8.43;;;;;;;14.66;100.00;94609.91;10528395;28;20027;-73
2021/09/19 21:39:15;;;;;;;19.83;8.90;;;;;;;14.74;100.00;94597.59;10528409;28;20020;-73
2021/09/19 21:44:16;;;;;;;17.10;8.63;;;;;;;14.85;100.00;94585.44;10528114;28;20024;-73
2021/09/19 21:49:16;;;;;;;18.23;8.40;;;;;;;14.93;100.00;94579.31;10527668;28;20032;-73
2021/09/19 21:54:17;;;;;;;16.95;8.82;;;;;;;14.91;100.00;94581.50;10527242;28;20278;-73
2021/09/19 21:59:17;;;;;;;13.13;8.60;;;;;;;14.83;100.00;94571.41;10527177;28;20031;-72
2021/09/19 22:04:17;;;;;;;15.47;8.40;;;;;;;14.75;100.00;94577.53;10527424;28;20035;-73
2021/09/19 22:09:19;;;;;;;11.47;7.77;;;;;;;14.69;100.00;94569.53;10528083;28;20292;-73
2021/09/19 22:14:24;;;;;;;13.50;7.00;;;;;;;14.78;100.00;94577.72;10527316;28;20290;-73
2021/09/19 22:19:26;;;;;;;18.70;7.85;;;;;;;14.69;100.00;94587.66;10527452;28;20040;-73
2021/09/19 22:24:27;;;;;;;16.52;8.65;;;;;;;14.81;100.00;94584.44;10527289;28;20024;-73
2021/09/19 22:29:27;;;;;;;13.35;8.00;;;;;;;14.67;100.00;94592.56;10532740;28;20423;-73
2021/09/19 22:34:27;;;;;;;21.27;9.47;;;;;;;14.72;100.00;94597.88;10535014;28;20425;-73
2021/09/19 22:39:28;;;;;;;15.38;8.50;;;;;;;14.62;100.00;94598.06;10534984;28;20269;-73
2021/09/19 22:44:29;;;;;;;19.10;8.10;;;;;;;14.56;100.00;94596.56;10535240;28;20028;-73